Time;durP1;ratioP1;P1;durP2;ratioP2;P2;SDS_P1;SDS_P2;PMS_P1;PMS_P2;Temp;Humidity;BMP_temperature;BMP_pressure;BME280_temperature;BME280_humidity;BME280_pressure;Samples;Min_cycle;Max_cycle;Signal;HPM_P1;HPM_P2
2023/05/11 00:02:00;;;;;;;;;;;22.10;53.30;;;;;;6390284;27;20066;-52
2023/05/11 00:05:01;;;;;;;0.20;0.15;;;21.70;53.40;;;;;;6391762;27;20456;-51
2023/05/11 00:08:04;;;;;;;0.50;0.28;;;22.10;53.50;;;;;;6389084;27;20030;-50
2023/05/11 00:11:07;;;;;;;0.10;0.10;;;22.30;53.50;;;;;;6386748;27;20544;-54
2023/05/11 00:14:10;;;;;;;0.63;0.25;;;22.10;53.10;;;;;;6392460;27;20049;-51
2023/05/11 00:17:11;;;;;;;;;;;22.10;53.10;;;;;;6393129;27;20137;-53
2023/05/11 00:20:13;;;;;;;0.10;0.10;;;22.00;53.30;;;;;;6391945;27;20425;-50
2023/05/11 00:23:15;;;;;;;;;;;21.70;53.00;;;;;;6392166;27;20047;-54
2023/05/11 00:26:16;;;;;;;;;;;21.70;53.20;;;;;;6392203;27;19954;-54
2023/05/11 00:29:18;;;;;;;0.20;0.20;;;21.70;53.20;;;;;;6391271;27;20002;-53
2023/05/11 00:32:20;;;;;;;;;;;21.50;52.80;;;;;;6392044;27;20055;-54
2023/05/11 00:35:23;;;;;;;0.45;0.10;;;21.80;53.10;;;;;;6392059;27;19957;-49
2023/05/11 00:38:26;;;;;;;0.20;0.20;;;22.10;53.00;;;;;;6392577;27;20083;-52
2023/05/11 00:41:27;;;;;;;0.20;0.20;;;22.00;52.60;;;;;;6392012;27;20038;-51
2023/05/11 00:44:29;;;;;;;;;;;21.70;52.30;;;;;;6393008;27;20038;-53
2023/05/11 00:47:30;;;;;;;0.30;0.10;;;22.00;52.70;;;;;;6392169;27;20533;-54
2023/05/11 00:50:32;;;;;;;0.20;0.10;;;22.00;52.50;;;;;;6391895;27;20100;-48
2023/05/11 00:53:34;;;;;;;0.30;0.20;;;22.00;52.80;;;;;;6392189;27;20712;-54
2023/05/11 00:56:36;;;;;;;0.10;0.10;;;22.10;52.40;;;;;;6391745;27;20513;-52
2023/05/11 00:59:37;;;;;;;;;;;21.90;52.20;;;;;;6391237;27;20072;-50
2023/05/11 01:02:39;;;;;;;0.20;0.20;;;22.10;52.50;;;;;;6391925;27;20377;-52
2023/05/11 01:05:47;;;;;;;0.10;0.10;;;22.10;52.30;;;;;;6373867;27;20041;-53
2023/05/11 01:08:56;;;;;;;0.20;0.20;;;22.10;52.20;;;;;;6391129;27;20031;-50
2023/05/11 01:12:07;;;;;;;0.10;0.10;;;21.90;52.20;;;;;;6387821;27;20669;-51
2023/05/11 01:15:11;;;;;;;0.10;0.10;;;22.10;52.30;;;;;;6391583;27;20031;-51
2023/05/11 01:18:19;;;;;;;0.10;0.10;;;21.80;52.20;;;;;;6391202;27;20485;-53
2023/05/11 01:21:22;;;;;;;0.20;0.20;;;21.70;52.20;;;;;;6357626;27;20035;-53
2023/05/11 01:24:36;;;;;;;0.17;0.17;;;21.90;52.50;;;;;;6391196;27;20042;-50
2023/05/11 01:27:53;;;;;;;0.28;0.20;;;22.00;52.40;;;;;;6390896;27;20563;-51
2023/05/11 01:31:00;;;;;;;0.47;0.28;;;21.90;52.50;;;;;;6391385;27;20042;-49
2023/05/11 01:34:07;;;;;;;0.65;0.20;;;22.00;52.60;;;;;;6391679;27;20481;-47
2023/05/11 01:37:14;;;;;;;0.10;0.10;;;22.00;52.70;;;;;;6391895;27;20038;-54
2023/05/11 01:40:21;;;;;;;0.50;0.28;;;21.90;52.60;;;;;;6391956;27;20035;-53
2023/05/11 01:43:26;;;;;;;0.10;0.10;;;21.90;53.30;;;;;;6391083;27;20452;-51
2023/05/11 01:46:33;;;;;;;0.32;0.30;;;21.80;52.70;;;;;;6390880;27;20030;-51
2023/05/11 01:49:37;;;;;;;0.30;0.20;;;21.40;52.50;;;;;;6356542;27;20042;-51
2023/05/11 01:52:40;;;;;;;0.10;0.10;;;21.80;52.80;;;;;;6373536;27;20404;-50
2023/05/11 01:55:42;;;;;;;0.47;0.20;;;21.90;53.00;;;;;;6390994;27;20445;-51
2023/05/11 01:58:45;;;;;;;0.30;0.20;;;21.90;53.00;;;;;;6391194;27;20034;-52
2023/05/11 02:01:47;;;;;;;0.20;0.15;;;22.00;53.10;;;;;;6390027;27;20054;-50
2023/05/11 02:04:49;;;;;;;0.10;0.10;;;21.70;53.00;;;;;;6389862;27;20052;-50
2023/05/11 02:07:54;;;;;;;0.98;0.40;;;21.90;53.20;;;;;;6390391;27;20193;-49
2023/05/11 02:10:56;;;;;;;0.13;0.13;;;21.90;53.10;;;;;;6389736;27;20042;-51
2023/05/11 02:13:59;;;;;;;0.22;0.20;;;21.90;53.20;;;;;;6390016;27;20038;-54
2023/05/11 02:17:02;;;;;;;0.20;0.20;;;21.80;53.20;;;;;;6391067;27;20038;-53
2023/05/11 02:20:06;;;;;;;0.70;0.30;;;21.30;52.80;;;;;;6355167;27;20119;-54
2023/05/11 02:23:09;;;;;;;0.30;0.30;;;21.90;53.10;;;;;;6390277;27;20650;-52
2023/05/11 02:26:15;;;;;;;0.25;0.25;;;22.00;53.20;;;;;;6390694;27;20035;-51
2023/05/11 02:29:16;;;;;;;0.30;0.30;;;21.90;53.10;;;;;;6389837;27;20058;-51
2023/05/11 02:32:21;;;;;;;0.30;0.30;;;21.80;53.20;;;;;;6390678;27;20103;-52
2023/05/11 02:35:27;;;;;;;0.40;0.22;;;21.60;53.00;;;;;;6390809;27;20122;-53
2023/05/11 02:38:35;;;;;;;0.30;0.30;;;21.60;52.90;;;;;;6372185;27;20031;-54
2023/05/11 02:41:42;;;;;;;0.40;0.30;;;21.80;53.10;;;;;;6390842;27;20031;-51
2023/05/11 02:44:55;;;;;;;0.30;0.30;;;21.80;53.00;;;;;;6372283;27;20592;-49
2023/05/11 02:47:59;;;;;;;0.43;0.30;;;21.80;53.00;;;;;;6371616;27;20039;-50
2023/05/11 02:51:06;;;;;;;0.32;0.30;;;21.90;53.10;;;;;;6390708;27;20046;-53
2023/05/11 02:54:15;;;;;;;0.70;0.45;;;21.90;53.10;;;;;;6390416;27;20561;-54
2023/05/11 02:57:22;;;;;;;0.40;0.28;;;21.90;53.10;;;;;;6390291;27;20031;-52
2023/05/11 03:00:24;;;;;;;0.30;0.30;;;21.70;53.10;;;;;;6389664;27;20124;-53
2023/05/11 03:03:26;;;;;;;0.38;0.20;;;21.80;53.30;;;;;;6390493;27;20045;-52
2023/05/11 03:06:32;;;;;;;0.20;0.20;;;21.70;53.10;;;;;;6390695;27;20038;-54
2023/05/11 03:09:35;;;;;;;0.20;0.20;;;21.80;53.20;;;;;;6390163;27;20027;-54
2023/05/11 03:12:37;;;;;;;0.20;0.20;;;21.70;53.30;;;;;;6390052;27;20033;-50
2023/05/11 03:15:40;;;;;;;0.20;0.20;;;21.90;53.40;;;;;;6390538;27;20034;-51
2023/05/11 03:18:43;;;;;;;0.30;0.30;;;21.80;53.40;;;;;;6390228;27;20516;-53
2023/05/11 03:21:45;;;;;;;0.17;0.17;;;21.80;53.30;;;;;;6390661;27;20035;-53
2023/05/11 03:24:47;;;;;;;0.20;0.20;;;21.80;53.30;;;;;;6370838;27;20047;-53
2023/05/11 03:27:52;;;;;;;0.20;0.20;;;21.70;53.40;;;;;;6388776;27;20102;-53
2023/05/11 03:30:53;;;;;;;0.20;0.20;;;21.80;53.30;;;;;;6388013;27;20110;-53
2023/05/11 03:33:57;;;;;;;0.35;0.20;;;21.90;53.60;;;;;;6336489;28;21129;-50
2023/05/11 03:37:01;;;;;;;0.20;0.20;;;21.80;53.50;;;;;;6336471;28;20040;-49
2023/05/11 03:40:05;;;;;;;0.20;0.20;;;21.60;53.30;;;;;;6338350;28;20124;-51
2023/05/11 03:43:17;;;;;;;0.10;0.10;;;21.80;53.40;;;;;;6337825;28;20035;-54
2023/05/11 03:46:22;;;;;;;0.13;0.10;;;21.70;53.30;;;;;;6337722;28;20031;-52
2023/05/11 03:49:26;;;;;;;0.30;0.28;;;21.80;53.40;;;;;;6337574;28;20028;-54
2023/05/11 03:52:28;;;;;;;0.30;0.20;;;21.90;53.40;;;;;;6338160;28;20103;-55
2023/05/11 03:55:30;;;;;;;0.32;0.28;;;21.90;53.50;;;;;;6339615;28;20048;-56
2023/05/11 03:58:32;;;;;;;0.20;0.20;;;21.70;53.30;;;;;;6340527;28;20043;-56
2023/05/11 04:01:34;;;;;;;0.28;0.28;;;21.50;53.90;;;;;;6349614;28;20048;-59
2023/05/11 04:04:36;;;;;;;0.13;0.13;;;21.80;53.40;;;;;;6342460;28;20039;-56
2023/05/11 04:07:38;;;;;;;0.17;0.10;;;21.90;53.50;;;;;;6340520;28;20123;-56
2023/05/11 04:10:40;;;;;;;0.50;0.25;;;21.70;53.30;;;;;;6339183;28;20087;-57
2023/05/11 04:13:42;;;;;;;0.35;0.30;;;21.70;53.30;;;;;;6339910;28;20039;-57
2023/05/11 04:16:43;;;;;;;0.20;0.20;;;21.80;53.30;;;;;;6339047;28;20036;-56
2023/05/11 04:19:45;;;;;;;;;;;21.50;53.10;;;;;;6340434;28;20038;-54
2023/05/11 04:22:46;;;;;;;;;;;21.90;53.50;;;;;;6341699;28;19941;-55
2023/05/11 04:25:52;;;;;;;0.32;0.20;;;21.60;53.40;;;;;;6340988;28;19927;-53
2023/05/11 04:28:53;;;;;;;0.13;0.13;;;21.70;53.20;;;;;;6341300;28;20599;-52
2023/05/11 04:31:55;;;;;;;;;;;21.80;53.20;;;;;;6342408;28;20046;-55
2023/05/11 04:35:00;;;;;;;0.52;0.30;;;21.70;53.30;;;;;;6342567;28;20245;-55
2023/05/11 04:38:06;;;;;;;0.10;0.10;;;21.40;52.80;;;;;;6345627;28;20039;-56
2023/05/11 04:41:08;;;;;;;0.20;0.20;;;21.70;52.90;;;;;;6346475;28;20724;-54
2023/05/11 04:44:11;;;;;;;0.20;0.20;;;22.00;53.00;;;;;;6344472;28;20089;-54
2023/05/11 04:47:13;;;;;;;0.20;0.20;;;21.60;52.70;;;;;;6344186;28;20079;-56
2023/05/11 04:50:15;;;;;;;0.20;0.20;;;21.60;52.60;;;;;;6344764;28;20044;-56
2023/05/11 04:53:17;;;;;;;0.57;0.20;;;21.70;52.60;;;;;;6343476;28;20107;-55
2023/05/11 04:56:21;;;;;;;0.40;0.40;;;21.70;52.60;;;;;;6343869;28;20147;-53
2023/05/11 04:59:23;;;;;;;0.60;0.30;;;21.70;52.60;;;;;;6344502;28;20028;-56
2023/05/11 05:02:25;;;;;;;;;;;21.60;52.50;;;;;;6345194;28;20084;-53
2023/05/11 05:05:27;;;;;;;0.13;0.10;;;21.80;52.90;;;;;;6344586;28;19980;-56
2023/05/11 05:08:29;;;;;;;0.30;0.20;;;21.60;52.50;;;;;;6344775;28;20044;-55
2023/05/11 05:11:31;;;;;;;0.20;0.20;;;21.80;52.60;;;;;;6344541;28;20506;-55
2023/05/11 05:14:32;;;;;;;0.10;0.10;;;21.60;52.50;;;;;;6344016;28;20035;-55
2023/05/11 05:17:33;;;;;;;;;;;21.60;52.60;;;;;;6340068;28;20040;-55
2023/05/11 05:20:35;;;;;;;0.30;0.20;;;21.70;52.90;;;;;;6340285;28;19919;-53
2023/05/11 05:23:37;;;;;;;0.40;0.20;;;21.80;52.80;;;;;;6338666;28;20039;-56
2023/05/11 05:26:38;;;;;;;;;;;21.40;52.50;;;;;;6340538;28;20046;-56
2023/05/11 05:29:40;;;;;;;0.10;0.10;;;21.30;52.70;;;;;;6341185;28;20018;-55
2023/05/11 05:32:43;;;;;;;0.95;0.40;;;21.70;52.70;;;;;;6342035;28;20036;-54
2023/05/11 05:35:45;;;;;;;;;;;21.60;52.70;;;;;;6341704;28;20039;-54
2023/05/11 05:38:47;;;;;;;0.55;0.30;;;21.60;53.00;;;;;;6341180;28;20014;-55
2023/05/11 05:41:49;;;;;;;0.40;0.25;;;21.70;52.80;;;;;;6341446;28;20039;-56
2023/05/11 05:44:54;;;;;;;0.40;0.20;;;21.70;52.50;;;;;;6341842;28;20059;-54
2023/05/11 05:47:59;;;;;;;0.30;0.20;;;21.70;52.60;;;;;;6342604;28;20035;-56
2023/05/11 05:51:02;;;;;;;0.15;0.10;;;21.70;52.70;;;;;;6342651;28;20046;-54
2023/05/11 05:54:03;;;;;;;0.60;0.20;;;21.90;52.70;;;;;;6343039;28;20078;-55
2023/05/11 05:57:05;;;;;;;0.43;0.30;;;21.70;52.60;;;;;;6342686;28;20032;-55
2023/05/11 06:00:08;;;;;;;;;;;21.80;52.60;;;;;;6341571;28;20677;-51
2023/05/11 06:03:13;;;;;;;0.20;0.20;;;21.70;52.90;;;;;;6317581;28;20015;-51
2023/05/11 06:06:16;;;;;;;0.20;0.20;;;21.70;52.80;;;;;;6328744;28;20042;-55
2023/05/11 06:09:18;;;;;;;0.20;0.20;;;21.70;52.70;;;;;;6329678;28;20123;-55
2023/05/11 06:12:19;;;;;;;0.50;0.20;;;21.60;52.60;;;;;;6331878;28;20036;-57
2023/05/11 06:15:23;;;;;;;0.30;0.20;;;21.50;52.60;;;;;;6317747;28;20036;-56
2023/05/11 06:18:35;;;;;;;0.28;0.20;;;21.70;52.90;;;;;;6325409;28;20113;-52
2023/05/11 06:21:41;;;;;;;0.20;0.20;;;21.30;52.70;;;;;;6325612;28;20159;-52
2023/05/11 06:24:43;;;;;;;0.32;0.28;;;20.70;52.40;;;;;;6322789;28;20156;-51
2023/05/11 06:27:45;;;;;;;0.20;0.20;;;21.80;53.00;;;;;;6321495;28;20071;-51
2023/05/11 06:30:47;;;;;;;0.20;0.20;;;21.70;53.20;;;;;;6312536;28;20331;-54
2023/05/11 06:33:50;;;;;;;0.30;0.30;;;21.70;53.50;;;;;;6313138;28;20036;-52
2023/05/11 06:36:59;;;;;;;0.63;0.28;;;21.90;53.20;;;;;;6322930;28;20035;-55
2023/05/11 06:40:01;;;;;;;0.32;0.30;;;21.80;53.00;;;;;;6323455;28;20201;-52
2023/05/11 06:43:03;;;;;;;0.60;0.32;;;21.60;52.80;;;;;;6319920;28;20090;-52
2023/05/11 06:46:17;;;;;;;0.50;0.30;;;21.90;53.00;;;;;;6300427;28;20043;-56
2023/05/11 06:49:19;;;;;;;1.73;0.30;;;21.40;52.90;;;;;;6317240;28;20641;-49
2023/05/11 06:52:21;;;;;;;0.28;0.25;;;21.70;53.00;;;;;;6324416;28;20039;-54
2023/05/11 06:55:22;;;;;;;0.38;0.20;;;21.60;52.80;;;;;;6323737;28;20047;-53
2023/05/11 06:58:24;;;;;;;;;;;21.80;53.10;;;;;;6326369;28;20694;-50
2023/05/11 07:01:26;;;;;;;1.90;0.32;;;21.90;53.40;;;;;;6323979;28;19927;-52
2023/05/11 07:04:28;;;;;;;0.35;0.20;;;22.00;53.30;;;;;;6307451;28;20040;-57
2023/05/11 07:07:30;;;;;;;0.85;0.38;;;21.70;53.00;;;;;;6316178;28;20032;-57
2023/05/11 07:10:32;;;;;;;0.52;0.30;;;21.70;53.40;;;;;;6322764;28;20036;-57
2023/05/11 07:13:34;;;;;;;0.32;0.20;;;22.90;53.40;;;;;;6321021;28;20050;-57
2023/05/11 07:16:37;;;;;;;;;;;21.80;52.60;;;;;;6322017;28;20844;-60
2023/05/11 07:19:38;;;;;;;1.42;0.20;;;22.00;52.90;;;;;;6319596;28;19919;-61
2023/05/11 07:22:40;;;;;;;;;;;23.00;53.50;;;;;;6318214;28;20084;-60
2023/05/11 07:25:42;;;;;;;0.10;0.10;;;22.00;53.40;;;;;;6319734;28;19923;-62
2023/05/11 07:28:43;;;;;;;0.38;0.20;;;22.00;53.10;;;;;;6296139;28;20034;-59
2023/05/11 07:31:47;;;;;;;;;;;22.00;52.70;;;;;;6294944;28;20055;-59
2023/05/11 07:34:49;;;;;;;0.52;0.20;;;21.90;51.50;;;;;;6326023;28;19927;-60
2023/05/11 07:37:51;;;;;;;0.30;0.20;;;22.10;53.20;;;;;;6324404;28;20031;-56
2023/05/11 07:40:52;;;;;;;1.27;0.22;;;22.00;51.80;;;;;;6316956;28;20043;-56
2023/05/11 07:43:54;;;;;;;1.52;0.20;;;21.50;51.60;;;;;;6320449;28;20771;-58
2023/05/11 07:46:57;;;;;;;;;;;22.00;51.60;;;;;;6325085;28;20529;-58
2023/05/11 07:49:58;;;;;;;0.30;0.20;;;22.20;51.80;;;;;;6318767;28;19927;-58
2023/05/11 07:53:00;;;;;;;;;;;22.10;51.40;;;;;;6325036;28;20482;-54
2023/05/11 07:56:02;;;;;;;0.68;0.22;;;22.20;51.80;;;;;;6311424;28;20481;-56
2023/05/11 07:59:04;;;;;;;0.70;0.50;;;22.10;51.20;;;;;;6319922;28;20031;-58
2023/05/11 08:02:06;;;;;;;0.90;0.40;;;22.10;51.00;;;;;;6318088;28;20032;-58
2023/05/11 08:05:08;;;;;;;0.52;0.43;;;21.90;50.60;;;;;;6316340;28;20054;-50
2023/05/11 08:08:10;;;;;;;0.80;0.50;;;21.80;50.40;;;;;;6314796;28;20066;-50
2023/05/11 08:11:12;;;;;;;0.80;0.55;;;22.10;50.40;;;;;;6282559;28;20039;-48
2023/05/11 08:14:13;;;;;;;0.70;0.30;;;22.20;50.40;;;;;;6293731;28;20043;-54
2023/05/11 08:17:15;;;;;;;;;;;21.20;49.80;;;;;;6329712;28;20062;-57
2023/05/11 08:20:16;;;;;;;0.45;0.30;;;22.40;50.40;;;;;;6327593;28;19920;-52
2023/05/11 08:23:19;;;;;;;0.60;0.35;;;22.10;50.20;;;;;;6333454;28;20689;-54
2023/05/11 08:26:21;;;;;;;0.30;0.20;;;22.30;50.00;;;;;;6310387;28;20749;-54
2023/05/11 08:29:23;;;;;;;;;;;22.40;49.90;;;;;;6322951;28;20410;-56
2023/05/11 08:32:25;;;;;;;0.28;0.20;;;22.40;49.80;;;;;;6327830;28;19931;-57
2023/05/11 08:35:27;;;;;;;0.40;0.30;;;22.30;49.60;;;;;;6311646;28;20106;-51
2023/05/11 08:38:29;;;;;;;;;;;22.30;49.50;;;;;;6292050;28;20031;-50
2023/05/11 08:41:33;;;;;;;0.20;0.20;;;22.10;49.50;;;;;;6283969;28;20548;-49
2023/05/11 08:44:37;;;;;;;0.47;0.28;;;22.60;49.70;;;;;;6278667;28;20778;-51
2023/05/11 08:47:39;;;;;;;0.75;0.30;;;22.40;49.10;;;;;;6290900;28;20040;-54
2023/05/11 08:50:41;;;;;;;0.38;0.20;;;22.10;48.90;;;;;;6294412;28;20032;-48
2023/05/11 08:53:45;;;;;;;0.28;0.20;;;22.30;48.60;;;;;;6298448;28;20121;-48
2023/05/11 08:56:50;;;;;;;0.17;0.17;;;22.40;48.50;;;;;;6312651;28;20040;-52
2023/05/11 08:59:53;;;;;;;0.82;0.20;;;22.30;48.40;;;;;;6325101;28;20679;-52
2023/05/11 09:02:56;;;;;;;0.30;0.22;;;22.30;48.20;;;;;;6307827;28;20039;-54
2023/05/11 09:05:59;;;;;;;0.28;0.20;;;22.30;47.90;;;;;;6306442;28;20036;-54
2023/05/11 09:09:01;;;;;;;0.22;0.20;;;22.30;47.70;;;;;;6304634;28;20116;-55
2023/05/11 09:12:03;;;;;;;0.35;0.25;;;22.40;47.50;;;;;;6317894;28;20050;-55
2023/05/11 09:15:06;;;;;;;0.30;0.20;;;22.30;47.30;;;;;;6302125;28;20040;-56
2023/05/11 09:18:07;;;;;;;0.45;0.25;;;22.40;47.10;;;;;;6347042;28;20040;-57
2023/05/11 09:21:09;;;;;;;0.52;0.32;;;22.40;47.00;;;;;;6348166;28;20040;-54
2023/05/11 09:24:12;;;;;;;;;;;22.20;46.80;;;;;;6356510;28;20039;-55
2023/05/11 09:27:14;;;;;;;0.60;0.30;;;22.50;47.10;;;;;;6352149;28;19915;-56
2023/05/11 09:30:22;;;;;;;0.40;0.25;;;22.50;47.00;;;;;;6336329;28;20041;-53
2023/05/11 09:33:25;;;;;;;0.30;0.20;;;22.40;46.80;;;;;;6328118;28;20091;-52
2023/05/11 09:36:27;;;;;;;0.50;0.20;;;22.50;46.80;;;;;;6322799;28;20727;-54
2023/05/11 09:39:30;;;;;;;0.60;0.40;;;22.40;46.60;;;;;;6324734;28;20532;-53
2023/05/11 09:42:40;;;;;;;0.40;0.20;;;22.40;46.30;;;;;;6323692;28;20638;-53
2023/05/11 09:45:44;;;;;;;0.10;0.10;;;22.30;46.40;;;;;;6346550;28;20042;-55
2023/05/11 09:48:58;;;;;;;0.60;0.22;;;22.10;45.90;;;;;;6340126;28;20720;-51
2023/05/11 09:52:00;;;;;;;0.30;0.28;;;22.50;46.10;;;;;;6335172;28;20059;-57
2023/05/11 09:55:09;;;;;;;0.57;0.30;;;22.40;46.10;;;;;;6333126;28;20063;-50
2023/05/11 09:58:11;;;;;;;0.57;0.20;;;22.40;45.80;;;;;;6328151;28;20039;-57
2023/05/11 10:01:13;;;;;;;0.20;0.20;;;22.50;45.90;;;;;;6324818;28;20780;-48
2023/05/11 10:04:15;;;;;;;0.22;0.20;;;22.50;45.70;;;;;;6309680;28;20043;-51
2023/05/11 10:07:25;;;;;;;0.40;0.20;;;22.60;45.70;;;;;;6325906;28;20723;-55
2023/05/11 10:10:31;;;;;;;1.27;0.15;;;22.40;45.40;;;;;;6297834;28;20035;-54
2023/05/11 10:13:35;;;;;;;0.43;0.10;;;22.40;45.50;;;;;;6280624;28;20036;-48
2023/05/11 10:16:38;;;;;;;0.30;0.20;;;22.50;45.10;;;;;;6302902;28;20077;-52
2023/05/11 10:19:39;;;;;;;0.75;0.10;;;22.30;45.50;;;;;;6285738;28;20779;-50
2023/05/11 10:22:41;;;;;;;;;;;22.60;45.70;;;;;;6266464;28;20845;-48
2023/05/11 10:25:43;;;;;;;;;;;22.50;45.90;;;;;;6298186;28;20683;-52
2023/05/11 10:28:45;;;;;;;0.80;0.20;;;22.60;45.80;;;;;;6316109;28;19915;-51
2023/05/11 10:31:47;;;;;;;0.30;0.17;;;22.50;45.50;;;;;;6280552;28;20051;-50
2023/05/11 10:34:49;;;;;;;0.50;0.20;;;22.00;45.00;;;;;;6321558;28;20636;-50
2023/05/11 10:37:51;;;;;;;0.35;0.20;;;22.50;45.20;;;;;;6319802;28;20035;-51
2023/05/11 10:40:59;;;;;;;0.35;0.20;;;22.50;45.10;;;;;;6319075;28;20775;-50
2023/05/11 10:44:31;;;;;;;0.30;0.20;;;22.50;45.00;;;;;;6322275;28;20685;-51
2023/05/11 10:47:54;;;;;;;0.38;0.10;;;22.50;44.90;;;;;;6301783;28;20928;-47
2023/05/11 10:51:06;;;;;;;0.15;0.15;;;22.00;44.50;;;;;;6293907;28;20735;-50
2023/05/11 10:54:27;;;;;;;0.70;0.20;;;22.40;44.50;;;;;;6290611;28;20878;-53
2023/05/11 10:57:47;;;;;;;0.50;0.20;;;22.20;44.30;;;;;;6315591;28;20039;-52
2023/05/11 11:01:17;;;;;;;0.30;0.10;;;22.20;44.00;;;;;;6317950;28;20036;-49
2023/05/11 11:04:19;;;;;;;0.20;0.20;;;22.50;44.20;;;;;;6325008;28;20091;-53
2023/05/11 11:07:20;;;;;;;0.35;0.17;;;22.50;44.30;;;;;;6325398;28;20039;-50
2023/05/11 11:10:29;;;;;;;;;;;23.10;44.60;;;;;;6325863;28;20112;-48
2023/05/11 11:14:00;;;;;;;0.30;0.22;;;22.50;44.50;;;;;;6325116;28;19920;-48
2023/05/11 11:17:24;;;;;;;0.95;0.20;;;22.70;45.00;;;;;;6313958;28;20042;-52
2023/05/11 11:20:51;;;;;;;0.30;0.20;;;22.60;45.30;;;;;;6303823;28;20055;-51
2023/05/11 11:23:53;;;;;;;0.55;0.30;;;22.50;45.60;;;;;;6327065;28;20588;-47
2023/05/11 11:26:54;;;;;;;0.30;0.20;;;22.50;45.90;;;;;;6308369;28;20028;-53
2023/05/11 11:30:06;;;;;;;;;;;22.50;46.30;;;;;;6292031;28;20036;-49
2023/05/11 11:33:20;;;;;;;;;;;22.50;46.50;;;;;;6296681;28;19927;-48
2023/05/11 11:36:50;;;;;;;0.20;0.20;;;22.30;46.40;;;;;;6324586;28;19924;-49
2023/05/11 11:39:59;;;;;;;0.40;0.40;;;22.40;46.20;;;;;;6326573;28;20074;-54
2023/05/11 11:43:18;;;;;;;1.08;0.65;;;22.60;46.50;;;;;;6325812;28;20036;-52
2023/05/11 11:46:28;;;;;;;1.10;0.55;;;22.60;46.50;;;;;;6324569;28;20054;-52
2023/05/11 11:49:30;;;;;;;0.40;0.30;;;23.00;47.50;;;;;;6306973;28;20038;-51
2023/05/11 11:52:33;;;;;;;0.52;0.22;;;22.70;46.80;;;;;;6322236;28;20071;-52
2023/05/11 11:55:46;;;;;;;0.20;0.20;;;22.50;46.80;;;;;;6319501;28;20685;-54
2023/05/11 11:59:02;;;;;;;0.20;0.20;;;22.70;46.90;;;;;;6311585;28;20039;-51
2023/05/11 12:02:06;;;;;;;0.40;0.20;;;22.60;46.90;;;;;;6318187;28;20047;-50
2023/05/11 12:05:11;;;;;;;0.40;0.20;;;22.80;46.90;;;;;;6321959;28;20729;-52
2023/05/11 12:08:16;;;;;;;0.38;0.20;;;22.60;46.60;;;;;;6321736;28;20689;-55
2023/05/11 12:11:18;;;;;;;0.17;0.17;;;22.70;46.30;;;;;;6295955;28;20110;-53
2023/05/11 12:14:21;;;;;;;0.30;0.28;;;22.70;46.20;;;;;;6295609;28;20544;-56
2023/05/11 12:17:28;;;;;;;0.22;0.20;;;22.80;45.80;;;;;;6321281;28;20588;-54
2023/05/11 12:20:29;;;;;;;0.10;0.10;;;22.70;45.30;;;;;;6292825;28;20060;-57
2023/05/11 12:23:31;;;;;;;0.15;0.10;;;22.10;45.20;;;;;;6306876;28;20086;-52
2023/05/11 12:26:35;;;;;;;0.30;0.20;;;22.50;45.00;;;;;;6308502;28;20803;-52
2023/05/11 12:29:37;;;;;;;0.22;0.20;;;21.60;44.20;;;;;;6300527;28;20032;-51
2023/05/11 12:32:41;;;;;;;0.20;0.20;;;22.70;44.60;;;;;;6279851;28;20758;-56
2023/05/11 12:35:45;;;;;;;0.17;0.10;;;21.30;43.50;;;;;;6292051;28;20036;-54
2023/05/11 12:38:47;;;;;;;0.35;0.20;;;22.60;43.90;;;;;;6315018;28;20771;-53
2023/05/11 12:41:53;;;;;;;0.10;0.10;;;24.00;44.60;;;;;;6314349;28;20046;-53
2023/05/11 12:44:55;;;;;;;0.25;0.15;;;22.60;43.70;;;;;;6321742;28;20036;-55
2023/05/11 12:48:00;;;;;;;0.40;0.20;;;23.70;44.20;;;;;;6307011;28;20028;-52
2023/05/11 12:51:02;;;;;;;0.20;0.20;;;23.00;43.80;;;;;;6291725;28;20165;-53
2023/05/11 12:54:03;;;;;;;0.20;0.15;;;22.40;43.40;;;;;;6323609;28;20036;-56
2023/05/11 12:57:07;;;;;;;1.08;0.20;;;22.80;43.50;;;;;;6327461;28;20032;-55
2023/05/11 13:00:11;;;;;;;0.47;0.40;;;22.70;43.30;;;;;;6324917;28;20610;-56
2023/05/11 13:03:19;;;;;;;0.40;0.20;;;22.80;43.20;;;;;;6321328;28;20028;-59
2023/05/11 13:06:21;;;;;;;0.38;0.20;;;24.00;43.70;;;;;;6325375;28;20043;-53
2023/05/11 13:09:23;;;;;;;;;;;22.70;42.90;;;;;;6324868;28;20611;-53
2023/05/11 13:12:26;;;;;;;0.40;0.20;;;23.30;43.40;;;;;;6329249;28;19919;-49
2023/05/11 13:15:28;;;;;;;0.10;0.10;;;22.80;42.80;;;;;;6325089;28;20044;-53
2023/05/11 13:18:29;;;;;;;0.10;0.10;;;22.80;42.90;;;;;;6323860;28;20036;-53
2023/05/11 13:21:32;;;;;;;;;;;22.60;42.20;;;;;;6325000;28;20028;-53
2023/05/11 13:24:33;;;;;;;0.52;0.22;;;22.60;42.30;;;;;;6326755;28;20556;-52
2023/05/11 13:27:37;;;;;;;0.73;0.20;;;22.80;42.40;;;;;;6325323;28;20540;-50
2023/05/11 13:30:39;;;;;;;0.43;0.30;;;22.50;41.90;;;;;;6319424;28;20585;-48
2023/05/11 13:33:41;;;;;;;0.20;0.15;;;22.80;41.90;;;;;;6324637;28;20173;-54
2023/05/11 13:36:42;;;;;;;;;;;22.90;41.90;;;;;;6325657;28;20043;-49
2023/05/11 13:39:43;;;;;;;0.52;0.30;;;22.60;41.90;;;;;;6308748;28;19915;-50
2023/05/11 13:42:45;;;;;;;;;;;23.50;42.60;;;;;;6306279;28;20036;-57
2023/05/11 13:45:47;;;;;;;0.30;0.10;;;22.80;42.30;;;;;;6324127;28;20576;-53
2023/05/11 13:48:48;;;;;;;;;;;22.70;42.40;;;;;;6323856;28;20662;-51
2023/05/11 13:51:51;;;;;;;0.10;0.10;;;22.60;42.70;;;;;;6324347;28;19919;-50
2023/05/11 13:54:52;;;;;;;0.55;0.32;;;22.70;42.80;;;;;;6303166;28;20032;-49
2023/05/11 13:57:55;;;;;;;;;;;22.10;42.80;;;;;;6287218;28;20059;-55
2023/05/11 14:00:57;;;;;;;0.75;0.30;;;23.00;43.40;;;;;;6292975;28;20658;-54
2023/05/11 14:04:05;;;;;;;0.40;0.20;;;22.70;43.10;;;;;;6322897;28;20537;-49
2023/05/11 14:07:06;;;;;;;;;;;22.80;43.30;;;;;;6312909;28;20032;-50
2023/05/11 14:10:09;;;;;;;0.30;0.20;;;22.90;43.40;;;;;;6309221;28;19919;-50
2023/05/11 14:13:12;;;;;;;0.10;0.10;;;22.70;43.30;;;;;;6305263;28;20042;-52
2023/05/11 14:16:14;;;;;;;0.30;0.22;;;22.50;43.00;;;;;;6302165;28;20035;-51
2023/05/11 14:19:15;;;;;;;0.32;0.20;;;22.80;43.20;;;;;;6307293;28;20032;-52
2023/05/11 14:22:17;;;;;;;0.40;0.20;;;22.70;43.00;;;;;;6282476;28;20066;-51
2023/05/11 14:25:19;;;;;;;0.40;0.20;;;22.50;43.00;;;;;;6306758;28;20055;-49
2023/05/11 14:28:22;;;;;;;0.45;0.40;;;22.70;43.20;;;;;;6307126;28;20063;-47
2023/05/11 14:31:24;;;;;;;0.50;0.47;;;22.80;43.30;;;;;;6303832;28;20032;-52
2023/05/11 14:34:26;;;;;;;0.30;0.30;;;23.00;43.40;;;;;;6309928;28;20111;-53
2023/05/11 14:37:27;;;;;;;;;;;22.90;43.40;;;;;;6312300;28;20040;-51
2023/05/11 14:40:30;;;;;;;0.60;0.20;;;22.80;43.40;;;;;;6303214;28;19923;-50
2023/05/11 14:43:32;;;;;;;0.10;0.10;;;22.70;44.00;;;;;;6315493;28;20043;-53
2023/05/11 14:46:33;;;;;;;0.25;0.20;;;22.80;43.40;;;;;;6314173;28;20518;-49
2023/05/11 14:49:35;;;;;;;0.30;0.20;;;22.90;43.40;;;;;;6276591;28;20509;-50
2023/05/11 14:52:36;;;;;;;;;;;22.80;43.40;;;;;;6309742;28;20028;-52
2023/05/11 14:55:38;;;;;;;0.40;0.28;;;22.90;43.60;;;;;;6279037;28;20448;-51
2023/05/11 14:58:40;;;;;;;0.22;0.15;;;22.80;43.60;;;;;;6278261;28;20277;-48
2023/05/11 15:01:42;;;;;;;0.45;0.30;;;23.00;43.60;;;;;;6297533;28;20036;-49
2023/05/11 15:04:43;;;;;;;;;;;22.80;43.60;;;;;;6310506;28;20115;-51
2023/05/11 15:07:44;;;;;;;0.22;0.22;;;22.70;43.90;;;;;;6311215;28;19927;-51
2023/05/11 15:10:47;;;;;;;;;;;22.90;43.60;;;;;;6307900;28;20043;-52
2023/05/11 15:13:49;;;;;;;0.30;0.20;;;22.70;43.60;;;;;;6309594;28;20696;-50
2023/05/11 15:16:52;;;;;;;0.30;0.22;;;23.00;43.60;;;;;;6312624;28;20036;-47
2023/05/11 15:19:54;;;;;;;0.40;0.32;;;23.00;43.50;;;;;;6309664;28;20036;-50
2023/05/11 15:22:55;;;;;;;0.35;0.20;;;22.60;43.00;;;;;;6314422;28;20635;-53
2023/05/11 15:25:57;;;;;;;0.10;0.10;;;23.00;43.10;;;;;;6320472;28;20634;-48
2023/05/11 15:28:59;;;;;;;0.10;0.10;;;22.90;42.80;;;;;;6321422;28;20152;-50
2023/05/11 15:32:01;;;;;;;0.63;0.17;;;22.80;42.70;;;;;;6314767;28;20035;-54
2023/05/11 15:35:05;;;;;;;0.95;0.22;;;22.90;42.70;;;;;;6314125;28;20031;-52
2023/05/11 15:38:06;;;;;;;0.22;0.10;;;22.90;42.60;;;;;;6313251;28;20045;-52
2023/05/11 15:41:08;;;;;;;;;;;22.90;42.70;;;;;;6315404;28;20031;-48
2023/05/11 15:44:10;;;;;;;;;;;23.00;42.90;;;;;;6316025;28;19935;-53
2023/05/11 15:47:12;;;;;;;0.20;0.20;;;23.40;43.10;;;;;;6322062;28;19915;-51
2023/05/11 15:50:13;;;;;;;0.30;0.20;;;23.10;42.80;;;;;;6316297;28;20043;-48
2023/05/11 15:53:15;;;;;;;0.40;0.20;;;23.00;42.60;;;;;;6319951;28;20492;-44
2023/05/11 15:56:16;;;;;;;0.20;0.20;;;23.10;42.50;;;;;;6322539;28;20044;-50
2023/05/11 15:59:18;;;;;;;;;;;22.80;42.30;;;;;;6326313;28;20042;-46
2023/05/11 16:02:20;;;;;;;0.10;0.10;;;22.90;42.40;;;;;;6342201;28;19915;-45
2023/05/11 16:05:27;;;;;;;0.10;0.10;;;23.20;42.30;;;;;;6337430;28;20050;-46
2023/05/11 16:08:28;;;;;;;0.40;0.28;;;23.20;42.10;;;;;;6328736;28;20164;-49
2023/05/11 16:11:30;;;;;;;0.28;0.20;;;23.20;42.10;;;;;;6317126;28;20047;-48